sensor_id;sensor_type;location;lat;lon;timestamp;P1;durP1;ratioP1;P2;durP2;ratioP2
21554;SDS011;10938;44.794;-0.676;2023-04-01T00:01:16;33.55;;;6.15;;
21554;SDS011;10938;44.794;-0.676;2023-04-01T00:03:42;27.45;;;5.50;;
21554;SDS011;10938;44.794;-0.676;2023-04-01T00:06:08;25.83;;;5.40;;
21554;SDS011;10938;44.794;-0.676;2023-04-01T00:08:34;27.50;;;5.43;;
21554;SDS011;10938;44.794;-0.676;2023-04-01T00:10:59;35.40;;;6.60;;
21554;SDS011;10938;44.794;-0.676;2023-04-01T00:13:25;34.90;;;5.93;;
21554;SDS011;10938;44.794;-0.676;2023-04-01T00:15:51;41.13;;;6.18;;
21554;SDS011;10938;44.794;-0.676;2023-04-01T00:18:17;25.77;;;5.75;;
21554;SDS011;10938;44.794;-0.676;2023-04-01T00:20:45;40.03;;;5.78;;
21554;SDS011;10938;44.794;-0.676;2023-04-01T00:23:11;26.38;;;6.05;;
21554;SDS011;10938;44.794;-0.676;2023-04-01T00:25:37;36.05;;;5.65;;
21554;SDS011;10938;44.794;-0.676;2023-04-01T00:28:02;32.67;;;5.88;;
21554;SDS011;10938;44.794;-0.676;2023-04-01T00:30:27;30.50;;;6.47;;
21554;SDS011;10938;44.794;-0.676;2023-04-01T00:32:53;35.70;;;6.25;;
21554;SDS011;10938;44.794;-0.676;2023-04-01T00:35:18;26.30;;;5.80;;
21554;SDS011;10938;44.794;-0.676;2023-04-01T00:37:44;38.72;;;6.25;;
21554;SDS011;10938;44.794;-0.676;2023-04-01T00:40:20;35.65;;;7.13;;
21554;SDS011;10938;44.794;-0.676;2023-04-01T00:42:47;37.55;;;6.20;;
21554;SDS011;10938;44.794;-0.676;2023-04-01T00:47:56;48.42;;;7.85;;
21554;SDS011;10938;44.794;-0.676;2023-04-01T00:50:24;39.90;;;6.68;;
21554;SDS011;10938;44.794;-0.676;2023-04-01T00:52:51;45.30;;;7.72;;
21554;SDS011;10938;44.794;-0.676;2023-04-01T00:55:17;38.08;;;7.40;;
21554;SDS011;10938;44.794;-0.676;2023-04-01T00:57:43;41.55;;;7.85;;
21554;SDS011;10938;44.794;-0.676;2023-04-01T01:00:11;40.03;;;6.68;;
21554;SDS011;10938;44.794;-0.676;2023-04-01T01:02:39;52.53;;;8.23;;
21554;SDS011;10938;44.794;-0.676;2023-04-01T01:05:06;38.33;;;6.45;;
21554;SDS011;10938;44.794;-0.676;2023-04-01T01:12:24;33.40;;;5.80;;
21554;SDS011;10938;44.794;-0.676;2023-04-01T01:27:54;28.52;;;5.30;;
21554;SDS011;10938;44.794;-0.676;2023-04-01T01:30:36;34.08;;;6.20;;
21554;SDS011;10938;44.794;-0.676;2023-04-01T01:33:08;38.33;;;6.53;;
21554;SDS011;10938;44.794;-0.676;2023-04-01T01:38:05;38.08;;;6.10;;
21554;SDS011;10938;44.794;-0.676;2023-04-01T01:40:31;35.70;;;7.38;;
21554;SDS011;10938;44.794;-0.676;2023-04-01T01:42:59;37.72;;;6.47;;
21554;SDS011;10938;44.794;-0.676;2023-04-01T01:45:26;37.85;;;6.90;;
21554;SDS011;10938;44.794;-0.676;2023-04-01T01:47:52;37.30;;;6.78;;
21554;SDS011;10938;44.794;-0.676;2023-04-01T01:50:18;42.45;;;7.22;;
21554;SDS011;10938;44.794;-0.676;2023-04-01T01:52:45;32.35;;;6.28;;
21554;SDS011;10938;44.794;-0.676;2023-04-01T01:57:55;42.05;;;7.55;;
21554;SDS011;10938;44.794;-0.676;2023-04-01T02:00:23;34.80;;;6.00;;
21554;SDS011;10938;44.794;-0.676;2023-04-01T02:02:48;33.25;;;6.60;;
21554;SDS011;10938;44.794;-0.676;2023-04-01T02:05:16;40.08;;;7.07;;
21554;SDS011;10938;44.794;-0.676;2023-04-01T02:07:42;47.20;;;7.00;;
21554;SDS011;10938;44.794;-0.676;2023-04-01T02:10:09;27.05;;;5.95;;
21554;SDS011;10938;44.794;-0.676;2023-04-01T02:12:34;33.25;;;6.55;;
21554;SDS011;10938;44.794;-0.676;2023-04-01T02:15:10;29.50;;;6.13;;
21554;SDS011;10938;44.794;-0.676;2023-04-01T02:17:38;33.80;;;6.30;;
21554;SDS011;10938;44.794;-0.676;2023-04-01T02:22:31;35.70;;;6.38;;
21554;SDS011;10938;44.794;-0.676;2023-04-01T02:24:59;39.42;;;6.97;;
21554;SDS011;10938;44.794;-0.676;2023-04-01T02:27:27;36.78;;;7.13;;
21554;SDS011;10938;44.794;-0.676;2023-04-01T02:29:53;32.95;;;6.25;;
21554;SDS011;10938;44.794;-0.676;2023-04-01T02:32:19;30.13;;;6.50;;
21554;SDS011;10938;44.794;-0.676;2023-04-01T02:34:45;33.08;;;5.75;;
21554;SDS011;10938;44.794;-0.676;2023-04-01T02:37:11;35.92;;;6.03;;
21554;SDS011;10938;44.794;-0.676;2023-04-01T02:39:37;33.58;;;6.63;;
21554;SDS011;10938;44.794;-0.676;2023-04-01T02:42:02;32.03;;;5.57;;
21554;SDS011;10938;44.794;-0.676;2023-04-01T02:44:27;33.25;;;6.15;;
21554;SDS011;10938;44.794;-0.676;2023-04-01T02:46:53;43.13;;;6.85;;
21554;SDS011;10938;44.794;-0.676;2023-04-01T02:49:18;28.10;;;6.00;;
21554;SDS011;10938;44.794;-0.676;2023-04-01T02:51:43;34.43;;;5.73;;
21554;SDS011;10938;44.794;-0.676;2023-04-01T02:54:09;39.25;;;5.97;;
21554;SDS011;10938;44.794;-0.676;2023-04-01T02:56:34;36.50;;;6.20;;
21554;SDS011;10938;44.794;-0.676;2023-04-01T02:58:59;33.10;;;6.60;;
21554;SDS011;10938;44.794;-0.676;2023-04-01T03:01:24;34.28;;;5.97;;
21554;SDS011;10938;44.794;-0.676;2023-04-01T03:03:50;33.35;;;5.85;;
21554;SDS011;10938;44.794;-0.676;2023-04-01T03:06:16;32.33;;;6.43;;
21554;SDS011;10938;44.794;-0.676;2023-04-01T03:08:41;29.23;;;5.72;;
21554;SDS011;10938;44.794;-0.676;2023-04-01T03:11:07;27.67;;;6.15;;
21554;SDS011;10938;44.794;-0.676;2023-04-01T03:13:32;31.30;;;5.75;;
21554;SDS011;10938;44.794;-0.676;2023-04-01T03:15:58;30.70;;;5.35;;
21554;SDS011;10938;44.794;-0.676;2023-04-01T03:18:24;22.00;;;4.30;;
21554;SDS011;10938;44.794;-0.676;2023-04-01T03:20:49;31.50;;;5.63;;
21554;SDS011;10938;44.794;-0.676;2023-04-01T03:23:15;28.00;;;5.00;;
21554;SDS011;10938;44.794;-0.676;2023-04-01T03:25:42;30.05;;;5.00;;
21554;SDS011;10938;44.794;-0.676;2023-04-01T03:28:07;29.33;;;5.22;;
21554;SDS011;10938;44.794;-0.676;2023-04-01T03:30:33;29.85;;;6.15;;
21554;SDS011;10938;44.794;-0.676;2023-04-01T03:32:59;27.20;;;4.43;;
21554;SDS011;10938;44.794;-0.676;2023-04-01T03:35:25;26.15;;;5.50;;
21554;SDS011;10938;44.794;-0.676;2023-04-01T03:37:51;31.30;;;5.90;;
21554;SDS011;10938;44.794;-0.676;2023-04-01T03:40:16;30.50;;;5.00;;
21554;SDS011;10938;44.794;-0.676;2023-04-01T03:42:42;28.80;;;5.32;;
21554;SDS011;10938;44.794;-0.676;2023-04-01T03:45:07;29.15;;;5.22;;
21554;SDS011;10938;44.794;-0.676;2023-04-01T03:47:34;29.70;;;5.22;;
21554;SDS011;10938;44.794;-0.676;2023-04-01T03:49:59;29.45;;;5.32;;
21554;SDS011;10938;44.794;-0.676;2023-04-01T03:52:24;35.70;;;5.60;;
21554;SDS011;10938;44.794;-0.676;2023-04-01T03:54:50;26.25;;;5.50;;
21554;SDS011;10938;44.794;-0.676;2023-04-01T03:57:15;28.27;;;5.43;;
21554;SDS011;10938;44.794;-0.676;2023-04-01T03:59:40;27.88;;;4.88;;
21554;SDS011;10938;44.794;-0.676;2023-04-01T04:02:05;25.92;;;4.47;;
21554;SDS011;10938;44.794;-0.676;2023-04-01T04:04:31;33.53;;;5.87;;
21554;SDS011;10938;44.794;-0.676;2023-04-01T04:06:57;37.92;;;6.10;;
21554;SDS011;10938;44.794;-0.676;2023-04-01T04:09:22;35.15;;;5.50;;
21554;SDS011;10938;44.794;-0.676;2023-04-01T04:11:48;36.78;;;5.80;;
21554;SDS011;10938;44.794;-0.676;2023-04-01T04:14:14;28.20;;;5.63;;
21554;SDS011;10938;44.794;-0.676;2023-04-01T04:16:39;31.40;;;5.70;;
21554;SDS011;10938;44.794;-0.676;2023-04-01T04:19:06;28.75;;;4.97;;
21554;SDS011;10938;44.794;-0.676;2023-04-01T04:21:31;24.87;;;5.07;;
21554;SDS011;10938;44.794;-0.676;2023-04-01T04:23:58;28.33;;;5.05;;
21554;SDS011;10938;44.794;-0.676;2023-04-01T04:26:23;27.80;;;5.32;;
21554;SDS011;10938;44.794;-0.676;2023-04-01T04:28:48;30.60;;;5.55;;
21554;SDS011;10938;44.794;-0.676;2023-04-01T04:31:18;33.90;;;6.32;;
21554;SDS011;10938;44.794;-0.676;2023-04-01T04:33:45;30.08;;;5.78;;
21554;SDS011;10938;44.794;-0.676;2023-04-01T04:36:10;30.27;;;5.13;;
21554;SDS011;10938;44.794;-0.676;2023-04-01T04:38:36;31.97;;;6.20;;
21554;SDS011;10938;44.794;-0.676;2023-04-01T04:41:01;24.90;;;4.50;;
21554;SDS011;10938;44.794;-0.676;2023-04-01T04:43:26;35.83;;;5.60;;
21554;SDS011;10938;44.794;-0.676;2023-04-01T04:45:51;31.23;;;5.63;;
21554;SDS011;10938;44.794;-0.676;2023-04-01T04:48:17;33.60;;;5.85;;
21554;SDS011;10938;44.794;-0.676;2023-04-01T04:50:47;26.15;;;5.00;;
21554;SDS011;10938;44.794;-0.676;2023-04-01T04:53:13;27.10;;;5.35;;
21554;SDS011;10938;44.794;-0.676;2023-04-01T04:55:45;32.55;;;5.68;;
21554;SDS011;10938;44.794;-0.676;2023-04-01T04:58:10;28.45;;;6.10;;
21554;SDS011;10938;44.794;-0.676;2023-04-01T05:00:36;27.90;;;4.83;;
21554;SDS011;10938;44.794;-0.676;2023-04-01T05:03:01;31.57;;;5.77;;
21554;SDS011;10938;44.794;-0.676;2023-04-01T05:05:26;36.23;;;5.87;;
21554;SDS011;10938;44.794;-0.676;2023-04-01T05:07:51;39.53;;;6.33;;
21554;SDS011;10938;44.794;-0.676;2023-04-01T05:10:17;31.30;;;6.07;;
21554;SDS011;10938;44.794;-0.676;2023-04-01T05:12:42;28.15;;;5.32;;
21554;SDS011;10938;44.794;-0.676;2023-04-01T05:15:08;28.80;;;6.20;;
21554;SDS011;10938;44.794;-0.676;2023-04-01T05:17:33;36.58;;;6.30;;
21554;SDS011;10938;44.794;-0.676;2023-04-01T05:19:58;31.27;;;5.88;;
21554;SDS011;10938;44.794;-0.676;2023-04-01T05:22:24;30.92;;;5.63;;
21554;SDS011;10938;44.794;-0.676;2023-04-01T05:24:49;33.28;;;7.47;;
21554;SDS011;10938;44.794;-0.676;2023-04-01T05:27:15;28.42;;;6.25;;
21554;SDS011;10938;44.794;-0.676;2023-04-01T05:29:40;32.50;;;5.90;;
21554;SDS011;10938;44.794;-0.676;2023-04-01T05:32:05;31.40;;;6.53;;
21554;SDS011;10938;44.794;-0.676;2023-04-01T05:34:30;30.90;;;4.82;;
21554;SDS011;10938;44.794;-0.676;2023-04-01T05:36:56;37.63;;;6.53;;
21554;SDS011;10938;44.794;-0.676;2023-04-01T05:39:21;36.75;;;6.80;;
21554;SDS011;10938;44.794;-0.676;2023-04-01T05:41:46;34.08;;;7.25;;
21554;SDS011;10938;44.794;-0.676;2023-04-01T05:44:12;35.35;;;6.57;;
21554;SDS011;10938;44.794;-0.676;2023-04-01T05:46:37;36.90;;;6.20;;
21554;SDS011;10938;44.794;-0.676;2023-04-01T05:49:02;37.05;;;6.53;;
21554;SDS011;10938;44.794;-0.676;2023-04-01T05:51:28;32.00;;;6.33;;
21554;SDS011;10938;44.794;-0.676;2023-04-01T05:53:53;34.33;;;6.10;;
21554;SDS011;10938;44.794;-0.676;2023-04-01T05:56:18;37.67;;;6.53;;
21554;SDS011;10938;44.794;-0.676;2023-04-01T05:58:43;42.00;;;6.60;;
21554;SDS011;10938;44.794;-0.676;2023-04-01T06:01:11;39.03;;;6.47;;
21554;SDS011;10938;44.794;-0.676;2023-04-01T06:03:37;29.95;;;6.35;;
21554;SDS011;10938;44.794;-0.676;2023-04-01T06:06:02;33.63;;;6.72;;
21554;SDS011;10938;44.794;-0.676;2023-04-01T06:08:29;34.25;;;6.90;;
21554;SDS011;10938;44.794;-0.676;2023-04-01T06:18:52;33.42;;;5.72;;
21554;SDS011;10938;44.794;-0.676;2023-04-01T06:26:34;22.90;;;4.18;;
21554;SDS011;10938;44.794;-0.676;2023-04-01T06:36:43;23.30;;;4.18;;
21554;SDS011;10938;44.794;-0.676;2023-04-01T06:39:26;24.92;;;4.72;;
21554;SDS011;10938;44.794;-0.676;2023-04-01T06:42:00;15.68;;;3.80;;
21554;SDS011;10938;44.794;-0.676;2023-04-01T06:44:47;17.13;;;4.28;;
21554;SDS011;10938;44.794;-0.676;2023-04-01T06:47:23;21.35;;;4.75;;
21554;SDS011;10938;44.794;-0.676;2023-04-01T06:55:12;25.77;;;5.07;;
21554;SDS011;10938;44.794;-0.676;2023-04-01T06:57:49;15.52;;;4.18;;
21554;SDS011;10938;44.794;-0.676;2023-04-01T07:00:22;27.17;;;5.40;;
21554;SDS011;10938;44.794;-0.676;2023-04-01T07:02:55;19.10;;;4.75;;
21554;SDS011;10938;44.794;-0.676;2023-04-01T07:05:24;18.58;;;4.97;;
21554;SDS011;10938;44.794;-0.676;2023-04-01T07:07:52;23.27;;;4.93;;
21554;SDS011;10938;44.794;-0.676;2023-04-01T07:12:54;21.42;;;5.63;;
21554;SDS011;10938;44.794;-0.676;2023-04-01T07:15:25;21.13;;;4.43;;
21554;SDS011;10938;44.794;-0.676;2023-04-01T07:17:58;19.35;;;5.07;;
21554;SDS011;10938;44.794;-0.676;2023-04-01T07:20:28;13.98;;;4.30;;
21554;SDS011;10938;44.794;-0.676;2023-04-01T07:22:56;18.67;;;5.10;;
21554;SDS011;10938;44.794;-0.676;2023-04-01T07:25:31;20.05;;;5.35;;
21554;SDS011;10938;44.794;-0.676;2023-04-01T07:28:03;17.30;;;4.33;;
21554;SDS011;10938;44.794;-0.676;2023-04-01T07:30:29;24.08;;;5.38;;
21554;SDS011;10938;44.794;-0.676;2023-04-01T07:33:11;21.67;;;5.30;;
21554;SDS011;10938;44.794;-0.676;2023-04-01T07:35:40;24.30;;;5.50;;
21554;SDS011;10938;44.794;-0.676;2023-04-01T07:38:29;27.85;;;6.07;;
21554;SDS011;10938;44.794;-0.676;2023-04-01T07:51:29;20.58;;;5.25;;
21554;SDS011;10938;44.794;-0.676;2023-04-01T07:56:34;18.40;;;5.13;;
21554;SDS011;10938;44.794;-0.676;2023-04-01T07:59:21;28.05;;;6.07;;
21554;SDS011;10938;44.794;-0.676;2023-04-01T08:01:54;24.42;;;5.65;;
21554;SDS011;10938;44.794;-0.676;2023-04-01T08:12:04;20.07;;;5.33;;
21554;SDS011;10938;44.794;-0.676;2023-04-01T08:22:30;23.03;;;5.23;;
21554;SDS011;10938;44.794;-0.676;2023-04-01T08:24:57;18.42;;;4.65;;
21554;SDS011;10938;44.794;-0.676;2023-04-01T08:27:26;19.45;;;5.18;;
21554;SDS011;10938;44.794;-0.676;2023-04-01T08:30:04;20.40;;;4.40;;
21554;SDS011;10938;44.794;-0.676;2023-04-01T08:32:34;18.45;;;4.82;;
21554;SDS011;10938;44.794;-0.676;2023-04-01T08:37:34;17.98;;;4.72;;
21554;SDS011;10938;44.794;-0.676;2023-04-01T08:51:26;19.73;;;4.80;;
21554;SDS011;10938;44.794;-0.676;2023-04-01T08:56:03;18.45;;;4.32;;
21554;SDS011;10938;44.794;-0.676;2023-04-01T09:21:44;16.13;;;4.35;;
21554;SDS011;10938;44.794;-0.676;2023-04-01T09:24:14;17.25;;;4.60;;
21554;SDS011;10938;44.794;-0.676;2023-04-01T09:39:50;19.43;;;5.23;;
21554;SDS011;10938;44.794;-0.676;2023-04-01T09:44:58;14.07;;;3.75;;
21554;SDS011;10938;44.794;-0.676;2023-04-01T09:52:44;18.15;;;4.38;;
21554;SDS011;10938;44.794;-0.676;2023-04-01T10:08:11;18.23;;;4.10;;
21554;SDS011;10938;44.794;-0.676;2023-04-01T10:11:45;15.43;;;3.60;;
21554;SDS011;10938;44.794;-0.676;2023-04-01T10:26:36;15.85;;;3.45;;
21554;SDS011;10938;44.794;-0.676;2023-04-01T10:37:01;21.58;;;4.47;;
21554;SDS011;10938;44.794;-0.676;2023-04-01T11:10:19;16.85;;;3.92;;
21554;SDS011;10938;44.794;-0.676;2023-04-01T11:33:53;13.38;;;3.00;;
21554;SDS011;10938;44.794;-0.676;2023-04-01T11:44:08;18.27;;;4.07;;
21554;SDS011;10938;44.794;-0.676;2023-04-01T11:46:39;16.40;;;3.42;;
21554;SDS011;10938;44.794;-0.676;2023-04-01T12:12:37;15.05;;;2.85;;
21554;SDS011;10938;44.794;-0.676;2023-04-01T12:17:39;11.15;;;3.17;;
21554;SDS011;10938;44.794;-0.676;2023-04-01T12:28:06;13.07;;;3.10;;
21554;SDS011;10938;44.794;-0.676;2023-04-01T12:41:23;13.73;;;2.85;;
21554;SDS011;10938;44.794;-0.676;2023-04-01T12:44:11;13.38;;;2.90;;
21554;SDS011;10938;44.794;-0.676;2023-04-01T12:54:22;7.80;;;1.60;;
21554;SDS011;10938;44.794;-0.676;2023-04-01T13:02:20;1.63;;;0.75;;
21554;SDS011;10938;44.794;-0.676;2023-04-01T13:04:54;3.38;;;0.93;;
21554;SDS011;10938;44.794;-0.676;2023-04-01T13:07:39;3.17;;;1.10;;
21554;SDS011;10938;44.794;-0.676;2023-04-01T13:10:13;3.43;;;0.90;;
21554;SDS011;10938;44.794;-0.676;2023-04-01T13:18:25;5.88;;;1.20;;
21554;SDS011;10938;44.794;-0.676;2023-04-01T13:28:05;9.37;;;2.07;;
21554;SDS011;10938;44.794;-0.676;2023-04-01T13:38:50;11.75;;;1.92;;
21554;SDS011;10938;44.794;-0.676;2023-04-01T13:41:29;11.48;;;2.13;;
21554;SDS011;10938;44.794;-0.676;2023-04-01T13:44:09;12.07;;;2.15;;
21554;SDS011;10938;44.794;-0.676;2023-04-01T14:13:13;11.80;;;2.10;;
21554;SDS011;10938;44.794;-0.676;2023-04-01T14:15:48;3.85;;;1.40;;
21554;SDS011;10938;44.794;-0.676;2023-04-01T14:20:45;5.17;;;1.43;;
21554;SDS011;10938;44.794;-0.676;2023-04-01T14:41:09;8.50;;;1.88;;
21554;SDS011;10938;44.794;-0.676;2023-04-01T14:51:45;9.80;;;1.65;;
21554;SDS011;10938;44.794;-0.676;2023-04-01T14:59:01;10.57;;;2.20;;
21554;SDS011;10938;44.794;-0.676;2023-04-01T15:09:10;11.90;;;2.22;;
21554;SDS011;10938;44.794;-0.676;2023-04-01T15:21:59;6.30;;;1.50;;
21554;SDS011;10938;44.794;-0.676;2023-04-01T15:24:21;6.90;;;1.88;;
21554;SDS011;10938;44.794;-0.676;2023-04-01T16:00:24;6.72;;;1.60;;
21554;SDS011;10938;44.794;-0.676;2023-04-01T16:05:51;10.35;;;2.22;;
21554;SDS011;10938;44.794;-0.676;2023-04-01T16:11:10;9.68;;;2.40;;
21554;SDS011;10938;44.794;-0.676;2023-04-01T16:18:40;11.80;;;2.40;;
21554;SDS011;10938;44.794;-0.676;2023-04-01T16:21:33;9.23;;;2.33;;
21554;SDS011;10938;44.794;-0.676;2023-04-01T16:26:50;8.00;;;1.90;;
21554;SDS011;10938;44.794;-0.676;2023-04-01T16:34:28;6.95;;;1.73;;
21554;SDS011;10938;44.794;-0.676;2023-04-01T16:37:09;8.60;;;1.75;;
21554;SDS011;10938;44.794;-0.676;2023-04-01T16:47:19;9.07;;;1.80;;
21554;SDS011;10938;44.794;-0.676;2023-04-01T16:49:48;7.47;;;1.67;;
21554;SDS011;10938;44.794;-0.676;2023-04-01T16:52:16;9.65;;;2.28;;
21554;SDS011;10938;44.794;-0.676;2023-04-01T16:57:28;10.98;;;2.58;;
21554;SDS011;10938;44.794;-0.676;2023-04-01T17:00:16;8.65;;;2.60;;
21554;SDS011;10938;44.794;-0.676;2023-04-01T17:02:45;10.30;;;2.13;;
21554;SDS011;10938;44.794;-0.676;2023-04-01T17:05:12;10.55;;;2.05;;
21554;SDS011;10938;44.794;-0.676;2023-04-01T17:25:39;8.38;;;2.00;;
21554;SDS011;10938;44.794;-0.676;2023-04-01T17:35:32;7.65;;;2.10;;
21554;SDS011;10938;44.794;-0.676;2023-04-01T17:49:01;12.05;;;2.75;;
21554;SDS011;10938;44.794;-0.676;2023-04-01T17:54:03;16.20;;;3.10;;
21554;SDS011;10938;44.794;-0.676;2023-04-01T18:01:49;12.80;;;2.63;;
21554;SDS011;10938;44.794;-0.676;2023-04-01T18:15:00;17.80;;;3.22;;
21554;SDS011;10938;44.794;-0.676;2023-04-01T18:23:12;15.18;;;2.85;;
21554;SDS011;10938;44.794;-0.676;2023-04-01T18:25:46;13.77;;;2.67;;
21554;SDS011;10938;44.794;-0.676;2023-04-01T18:30:49;12.63;;;2.30;;
21554;SDS011;10938;44.794;-0.676;2023-04-01T18:39:00;12.13;;;2.50;;
21554;SDS011;10938;44.794;-0.676;2023-04-01T18:42:28;9.52;;;2.20;;
21554;SDS011;10938;44.794;-0.676;2023-04-01T18:57:22;11.40;;;3.00;;
21554;SDS011;10938;44.794;-0.676;2023-04-01T19:00:02;12.15;;;2.90;;
21554;SDS011;10938;44.794;-0.676;2023-04-01T19:15:50;8.55;;;2.13;;
21554;SDS011;10938;44.794;-0.676;2023-04-01T19:25:55;6.88;;;1.90;;
21554;SDS011;10938;44.794;-0.676;2023-04-01T19:33:17;6.60;;;1.60;;
21554;SDS011;10938;44.794;-0.676;2023-04-01T19:44:03;10.00;;;1.83;;
21554;SDS011;10938;44.794;-0.676;2023-04-01T19:51:57;6.05;;;1.70;;
21554;SDS011;10938;44.794;-0.676;2023-04-01T20:01:52;8.60;;;1.80;;
21554;SDS011;10938;44.794;-0.676;2023-04-01T20:04:30;12.68;;;2.88;;
21554;SDS011;10938;44.794;-0.676;2023-04-01T20:07:04;10.52;;;2.88;;
21554;SDS011;10938;44.794;-0.676;2023-04-01T20:14:58;13.65;;;2.88;;
21554;SDS011;10938;44.794;-0.676;2023-04-01T20:19:58;15.05;;;2.72;;
21554;SDS011;10938;44.794;-0.676;2023-04-01T20:25:19;9.65;;;3.00;;
21554;SDS011;10938;44.794;-0.676;2023-04-01T20:27:47;10.15;;;3.25;;
21554;SDS011;10938;44.794;-0.676;2023-04-01T20:35:36;11.68;;;2.50;;
21554;SDS011;10938;44.794;-0.676;2023-04-01T20:38:12;13.55;;;2.60;;
21554;SDS011;10938;44.794;-0.676;2023-04-01T20:40:44;17.40;;;2.80;;
21554;SDS011;10938;44.794;-0.676;2023-04-01T20:50:52;13.50;;;2.83;;
21554;SDS011;10938;44.794;-0.676;2023-04-01T20:53:28;6.00;;;1.65;;
21554;SDS011;10938;44.794;-0.676;2023-04-01T21:01:20;8.95;;;1.80;;
21554;SDS011;10938;44.794;-0.676;2023-04-01T21:22:48;14.57;;;4.03;;
21554;SDS011;10938;44.794;-0.676;2023-04-01T21:25:26;14.48;;;3.80;;
21554;SDS011;10938;44.794;-0.676;2023-04-01T21:28:00;12.95;;;3.22;;
21554;SDS011;10938;44.794;-0.676;2023-04-01T21:50:45;26.88;;;14.18;;
21554;SDS011;10938;44.794;-0.676;2023-04-01T21:59:01;12.35;;;4.03;;
21554;SDS011;10938;44.794;-0.676;2023-04-01T22:01:38;11.38;;;3.88;;
21554;SDS011;10938;44.794;-0.676;2023-04-01T22:04:15;15.73;;;2.95;;
21554;SDS011;10938;44.794;-0.676;2023-04-01T22:07:00;9.02;;;2.60;;
21554;SDS011;10938;44.794;-0.676;2023-04-01T22:09:40;13.40;;;3.05;;
21554;SDS011;10938;44.794;-0.676;2023-04-01T22:12:09;10.30;;;2.75;;
21554;SDS011;10938;44.794;-0.676;2023-04-01T22:17:28;17.58;;;3.15;;
21554;SDS011;10938;44.794;-0.676;2023-04-01T22:20:10;10.75;;;2.25;;
21554;SDS011;10938;44.794;-0.676;2023-04-01T22:25:16;11.27;;;2.50;;
21554;SDS011;10938;44.794;-0.676;2023-04-01T22:27:48;10.02;;;2.08;;
21554;SDS011;10938;44.794;-0.676;2023-04-01T22:30:24;11.07;;;2.20;;
21554;SDS011;10938;44.794;-0.676;2023-04-01T22:32:56;12.95;;;2.75;;
21554;SDS011;10938;44.794;-0.676;2023-04-01T22:43:04;10.20;;;2.23;;
21554;SDS011;10938;44.794;-0.676;2023-04-01T22:45:40;13.00;;;2.40;;
21554;SDS011;10938;44.794;-0.676;2023-04-01T22:53:37;10.45;;;2.35;;
21554;SDS011;10938;44.794;-0.676;2023-04-01T22:56:11;11.85;;;2.78;;
21554;SDS011;10938;44.794;-0.676;2023-04-01T22:58:38;10.77;;;2.50;;
21554;SDS011;10938;44.794;-0.676;2023-04-01T23:01:06;15.75;;;3.17;;
21554;SDS011;10938;44.794;-0.676;2023-04-01T23:03:33;9.48;;;2.30;;
21554;SDS011;10938;44.794;-0.676;2023-04-01T23:06:00;18.67;;;2.72;;
21554;SDS011;10938;44.794;-0.676;2023-04-01T23:11:06;10.35;;;2.45;;
21554;SDS011;10938;44.794;-0.676;2023-04-01T23:13:39;12.32;;;2.38;;
21554;SDS011;10938;44.794;-0.676;2023-04-01T23:16:07;9.98;;;2.22;;
21554;SDS011;10938;44.794;-0.676;2023-04-01T23:18:36;12.70;;;3.00;;
21554;SDS011;10938;44.794;-0.676;2023-04-01T23:21:50;9.85;;;2.00;;
21554;SDS011;10938;44.794;-0.676;2023-04-01T23:26:34;17.60;;;2.72;;
21554;SDS011;10938;44.794;-0.676;2023-04-01T23:29:01;15.32;;;2.78;;
21554;SDS011;10938;44.794;-0.676;2023-04-01T23:31:32;15.82;;;2.95;;
21554;SDS011;10938;44.794;-0.676;2023-04-01T23:33:59;13.35;;;2.55;;
21554;SDS011;10938;44.794;-0.676;2023-04-01T23:36:25;11.40;;;2.85;;
21554;SDS011;10938;44.794;-0.676;2023-04-01T23:38:50;8.93;;;2.40;;
21554;SDS011;10938;44.794;-0.676;2023-04-01T23:41:26;13.77;;;2.80;;
21554;SDS011;10938;44.794;-0.676;2023-04-01T23:43:58;15.60;;;2.95;;
21554;SDS011;10938;44.794;-0.676;2023-04-01T23:46:24;12.52;;;2.38;;
21554;SDS011;10938;44.794;-0.676;2023-04-01T23:48:50;18.67;;;2.92;;
21554;SDS011;10938;44.794;-0.676;2023-04-01T23:51:21;7.35;;;2.15;;
21554;SDS011;10938;44.794;-0.676;2023-04-01T23:53:47;15.38;;;3.33;;
21554;SDS011;10938;44.794;-0.676;2023-04-01T23:56:16;11.25;;;2.70;;
21554;SDS011;10938;44.794;-0.676;2023-04-01T23:58:43;13.07;;;2.80;;
